createdAt,value
2019-01-24T00:00:37.027Z,87.34
2019-01-24T00:01:37.041Z,86.92
2019-01-24T00:02:36.985Z,87.13
2019-01-24T00:03:36.994Z,87.24
2019-01-24T00:04:37.022Z,87.34
2019-01-24T00:05:36.993Z,86.71
2019-01-24T00:06:37.002Z,86.61
2019-01-24T00:07:36.940Z,86.92
2019-01-24T00:08:36.922Z,86.71
2019-01-24T00:09:36.916Z,86.51
2019-01-24T00:10:36.979Z,86.92
2019-01-24T00:11:36.900Z,87.13
2019-01-24T00:12:36.905Z,86.71
2019-01-24T00:13:36.907Z,86.71
2019-01-24T00:14:36.875Z,86.92
2019-01-24T00:15:36.871Z,86.61
2019-01-24T00:16:36.857Z,86.61
2019-01-24T00:17:36.863Z,86.61
2019-01-24T00:18:36.844Z,86.40
2019-01-24T00:19:36.835Z,86.51
2019-01-24T00:20:36.823Z,86.29
2019-01-24T00:21:36.792Z,86.29
2019-01-24T00:22:36.814Z,86.51
2019-01-24T00:23:36.776Z,86.40
2019-01-24T00:24:36.759Z,86.51
2019-01-24T00:25:36.838Z,86.71
2019-01-24T00:26:36.740Z,86.51
2019-01-24T00:27:36.748Z,86.51
2019-01-24T00:28:36.752Z,86.82
2019-01-24T00:29:36.717Z,87.55
2019-01-24T00:30:36.739Z,86.92
2019-01-24T00:31:36.714Z,86.71
2019-01-24T00:32:36.704Z,87.13
2019-01-24T00:33:36.666Z,87.13
2019-01-24T00:34:36.679Z,87.03
2019-01-24T00:35:36.671Z,86.92
2019-01-24T00:36:36.638Z,86.82
2019-01-24T00:37:36.650Z,86.92
2019-01-24T00:38:36.656Z,87.24
2019-01-24T00:39:36.612Z,87.55
2019-01-24T00:40:36.596Z,87.55
2019-01-24T00:41:36.637Z,87.76
2019-01-24T00:42:36.589Z,87.13
2019-01-24T00:43:36.578Z,87.55
2019-01-24T00:44:36.551Z,87.76
2019-01-24T00:45:36.541Z,88.18
2019-01-24T00:46:36.582Z,88.22
2019-01-24T00:47:36.574Z,87.76
2019-01-24T00:48:36.539Z,88.18
2019-01-24T00:49:36.500Z,88.29
2019-01-24T00:50:36.543Z,88.71
2019-01-24T00:51:36.510Z,88.22
2019-01-24T00:52:36.491Z,88.49
2019-01-24T00:53:36.462Z,88.12
2019-01-24T00:54:36.456Z,88.22
2019-01-24T00:55:36.471Z,88.64
2019-01-24T00:56:36.455Z,88.85
2019-01-24T00:57:36.432Z,88.71
2019-01-24T00:58:36.423Z,88.60
2019-01-24T00:59:36.424Z,88.22
2019-01-24T01:00:36.410Z,88.96
2019-01-24T01:01:36.394Z,88.64
2019-01-24T01:02:36.413Z,88.92
2019-01-24T01:03:36.358Z,88.81
2019-01-24T01:04:36.351Z,88.85
2019-01-24T01:05:36.375Z,88.43
2019-01-24T01:06:36.336Z,88.39
2019-01-24T01:07:36.320Z,88.32
2019-01-24T01:08:36.341Z,88.12
2019-01-24T01:09:36.298Z,87.91
2019-01-24T01:10:36.308Z,88.32
2019-01-24T01:11:36.279Z,88.18
2019-01-24T01:12:36.268Z,88.12
2019-01-24T01:13:36.282Z,88.39
2019-01-24T01:14:36.258Z,87.91
2019-01-24T01:15:36.250Z,87.97
2019-01-24T01:16:36.229Z,88.39
2019-01-24T01:17:36.216Z,88.32
2019-01-24T01:18:36.217Z,88.29
2019-01-24T01:19:36.220Z,88.43
2019-01-24T01:20:36.182Z,88.32
2019-01-24T01:21:36.180Z,88.12
2019-01-24T01:22:36.208Z,88.29
2019-01-24T01:23:36.173Z,88.12
2019-01-24T01:24:36.146Z,87.91
2019-01-24T01:25:36.135Z,88.22
2019-01-24T01:26:36.125Z,87.97
2019-01-24T01:27:36.120Z,87.70
2019-01-24T01:28:36.128Z,87.91
2019-01-24T01:29:36.095Z,87.70
2019-01-24T01:30:36.082Z,87.59
2019-01-24T01:31:36.082Z,87.49
2019-01-24T01:32:36.062Z,87.49
2019-01-24T01:33:36.065Z,87.91
2019-01-24T01:34:36.403Z,88.22
2019-01-24T01:35:36.027Z,87.91
2019-01-24T01:36:36.047Z,87.91
2019-01-24T01:37:36.007Z,87.91
2019-01-24T01:38:36.018Z,87.70
2019-01-24T01:39:35.985Z,88.32
2019-01-24T01:40:35.975Z,88.32
2019-01-24T01:41:35.969Z,87.91
2019-01-24T01:42:35.954Z,88.32
2019-01-24T01:43:35.966Z,87.91
2019-01-24T01:44:35.950Z,87.80
2019-01-24T01:45:35.925Z,88.22
2019-01-24T01:46:35.916Z,88.22
2019-01-24T01:47:35.911Z,88.22
2019-01-24T01:48:35.908Z,88.12
2019-01-24T01:49:35.893Z,87.80
2019-01-24T01:50:35.877Z,87.80
2019-01-24T01:51:35.862Z,88.12
2019-01-24T01:52:35.867Z,87.91
2019-01-24T01:53:35.871Z,87.91
2019-01-24T01:54:35.830Z,88.32
2019-01-24T01:55:35.820Z,88.32
2019-01-24T01:56:35.819Z,87.91
2019-01-24T01:57:35.803Z,88.22
2019-01-24T01:58:35.805Z,88.01
2019-01-24T01:59:35.804Z,87.91
2019-01-24T02:00:35.769Z,87.80
2019-01-24T02:01:35.758Z,88.32
2019-01-24T02:02:35.750Z,88.32
2019-01-24T02:03:35.741Z,88.22
2019-01-24T02:04:35.742Z,88.64
2019-01-24T02:05:35.728Z,88.85
2019-01-24T02:06:35.726Z,88.32
2019-01-24T02:07:35.714Z,88.22
2019-01-24T02:08:35.698Z,88.43
2019-01-24T02:09:35.707Z,88.22
2019-01-24T02:10:35.683Z,88.22
2019-01-24T02:11:35.657Z,88.12
2019-01-24T02:12:35.646Z,88.01
2019-01-24T02:13:35.636Z,88.22
2019-01-24T02:14:35.641Z,88.22
2019-01-24T02:15:35.614Z,88.32
2019-01-24T02:16:35.617Z,87.91
2019-01-24T02:17:35.613Z,88.43
2019-01-24T02:18:35.668Z,88.16
2019-01-24T02:19:35.600Z,88.54
2019-01-24T02:20:35.603Z,88.89
2019-01-24T02:21:35.570Z,89.27
2019-01-24T02:22:35.574Z,89.00
2019-01-24T02:23:35.531Z,89.06
2019-01-24T02:24:35.537Z,88.85
2019-01-24T02:25:35.511Z,89.37
2019-01-24T02:26:35.507Z,89.27
2019-01-24T02:27:35.489Z,89.00
2019-01-24T02:28:35.480Z,89.27
2019-01-24T02:29:35.490Z,89.37
2019-01-24T02:30:35.461Z,89.90
2019-01-24T02:31:35.487Z,89.84
2019-01-24T02:32:35.446Z,90.05
2019-01-24T02:33:35.441Z,90.05
2019-01-24T02:34:35.449Z,89.73
2019-01-24T02:35:35.414Z,89.84
2019-01-24T02:36:35.396Z,90.15
2019-01-24T02:37:35.430Z,89.52
2019-01-24T02:38:35.418Z,89.62
2019-01-24T02:39:35.420Z,90.15
2019-01-24T02:40:35.371Z,89.73
2019-01-24T02:41:35.362Z,89.84
2019-01-24T02:42:35.376Z,89.52
2019-01-24T02:43:35.326Z,89.84
2019-01-24T02:44:35.330Z,89.94
2019-01-24T02:45:35.321Z,89.84
2019-01-24T02:46:35.295Z,90.15
2019-01-24T02:47:35.288Z,90.25
2019-01-24T02:48:35.288Z,90.05
2019-01-24T02:49:35.295Z,89.52
2019-01-24T02:50:35.253Z,89.42
2019-01-24T02:51:35.243Z,90.05
2019-01-24T02:52:35.242Z,90.15
2019-01-24T02:53:35.221Z,89.10
2019-01-24T02:54:35.227Z,89.10
2019-01-24T02:55:35.257Z,89.21
2019-01-24T02:56:35.198Z,89.62
2019-01-24T02:57:35.207Z,89.62
2019-01-24T02:58:35.175Z,89.94
2019-01-24T02:59:35.179Z,89.94
2019-01-24T03:00:35.189Z,89.10
2019-01-24T03:01:35.160Z,89.31
2019-01-24T03:02:35.128Z,89.21
2019-01-24T03:03:35.120Z,89.10
2019-01-24T03:04:35.142Z,89.21
2019-01-24T03:05:35.126Z,89.31
2019-01-24T03:06:35.087Z,89.31
2019-01-24T03:07:35.086Z,89.21
2019-01-24T03:08:35.088Z,89.10
2019-01-24T03:09:35.071Z,89.00
2019-01-24T03:10:35.076Z,89.31
2019-01-24T03:11:35.039Z,88.79
2019-01-24T03:12:35.042Z,89.31
2019-01-24T03:13:35.025Z,89.31
2019-01-24T03:14:35.006Z,89.31
2019-01-24T03:15:35.017Z,88.68
2019-01-24T03:16:34.992Z,89.10
2019-01-24T03:17:34.997Z,89.21
2019-01-24T03:18:34.968Z,89.10
2019-01-24T03:19:34.994Z,88.79
2019-01-24T03:20:34.960Z,88.93
2019-01-24T03:21:34.944Z,89.21
2019-01-24T03:22:34.922Z,89.21
2019-01-24T03:23:34.923Z,89.46
2019-01-24T03:24:34.913Z,89.46
2019-01-24T03:25:34.906Z,90.15
2019-01-24T03:26:34.888Z,89.31
2019-01-24T03:27:34.891Z,89.10
2019-01-24T03:28:34.895Z,89.00
2019-01-24T03:29:34.888Z,89.42
2019-01-24T03:30:34.893Z,88.89
2019-01-24T03:31:34.841Z,89.14
2019-01-24T03:32:34.879Z,89.21
2019-01-24T03:33:34.838Z,89.52
2019-01-24T03:34:34.803Z,89.31
2019-01-24T03:35:34.815Z,89.21
2019-01-24T03:36:34.787Z,89.94
2019-01-24T03:37:34.771Z,89.31
2019-01-24T03:38:34.767Z,89.10
2019-01-24T03:39:34.785Z,89.21
2019-01-24T03:40:34.761Z,88.57
2019-01-24T03:41:34.728Z,89.00
2019-01-24T03:42:34.718Z,89.21
2019-01-24T03:43:34.714Z,88.79
2019-01-24T03:44:34.697Z,89.21
2019-01-24T03:45:34.707Z,88.47
2019-01-24T03:46:34.677Z,89.00
2019-01-24T03:47:34.670Z,88.89
2019-01-24T03:48:34.681Z,88.68
2019-01-24T03:49:34.668Z,89.21
2019-01-24T03:50:34.655Z,88.89
2019-01-24T03:51:34.640Z,89.31
2019-01-24T03:52:34.629Z,89.21
2019-01-24T03:53:34.640Z,89.00
2019-01-24T03:54:34.596Z,89.21
2019-01-24T03:55:34.607Z,89.98
2019-01-24T03:56:34.594Z,89.14
2019-01-24T03:57:34.595Z,89.46
2019-01-24T03:58:34.596Z,89.98
2019-01-24T03:59:34.546Z,89.77
2019-01-24T04:00:34.559Z,89.98
2019-01-24T04:01:34.526Z,90.09
2019-01-24T04:02:34.511Z,89.77
2019-01-24T04:03:34.518Z,90.19
2019-01-24T04:04:34.513Z,90.61
2019-01-24T04:05:34.501Z,89.98
2019-01-24T04:06:34.473Z,89.67
2019-01-24T04:07:34.468Z,89.67
2019-01-24T04:08:34.484Z,89.25
2019-01-24T04:09:34.441Z,89.67
2019-01-24T04:10:34.460Z,89.67
2019-01-24T04:11:34.420Z,89.46
2019-01-24T04:12:34.421Z,90.09
2019-01-24T04:13:34.400Z,89.98
2019-01-24T04:14:34.422Z,90.19
2019-01-24T04:15:34.386Z,89.87
2019-01-24T04:16:34.395Z,89.67
2019-01-24T04:17:34.381Z,89.56
2019-01-24T04:18:34.346Z,89.35
2019-01-24T04:19:34.379Z,89.77
2019-01-24T04:20:34.327Z,89.87
2019-01-24T04:21:34.340Z,89.87
2019-01-24T04:22:34.305Z,89.56
2019-01-24T04:23:34.313Z,89.67
2019-01-24T04:24:34.314Z,90.55
2019-01-24T04:25:34.287Z,90.97
2019-01-24T04:26:34.304Z,90.55
2019-01-24T04:27:34.280Z,89.98
2019-01-24T04:28:34.292Z,89.81
2019-01-24T04:29:34.237Z,90.30
2019-01-24T04:30:34.227Z,90.30
2019-01-24T04:31:34.234Z,89.46
2019-01-24T04:32:34.278Z,90.66
2019-01-24T04:33:34.221Z,90.61
2019-01-24T04:34:34.220Z,90.86
2019-01-24T04:35:34.215Z,91.49
2019-01-24T04:36:34.182Z,91.39
2019-01-24T04:37:34.152Z,91.71
2019-01-24T04:38:34.172Z,90.86
2019-01-24T04:39:34.144Z,90.97
2019-01-24T04:40:34.118Z,91.28
2019-01-24T04:41:34.183Z,91.71
2019-01-24T04:42:34.104Z,91.60
2019-01-24T04:43:34.138Z,91.49
2019-01-24T04:44:34.079Z,91.03
2019-01-24T04:45:34.068Z,91.60
2019-01-24T04:46:34.142Z,91.49
2019-01-24T04:47:34.057Z,91.14
2019-01-24T04:48:34.034Z,90.82
2019-01-24T04:49:34.029Z,91.45
2019-01-24T04:50:34.024Z,91.35
2019-01-24T04:51:34.026Z,91.60
2019-01-24T04:52:34.023Z,91.49
2019-01-24T04:53:33.985Z,91.45
2019-01-24T04:54:33.974Z,91.56
2019-01-24T04:55:34.010Z,91.87
2019-01-24T04:56:34.011Z,91.77
2019-01-24T04:57:33.945Z,91.87
2019-01-24T04:58:33.938Z,91.24
2019-01-24T04:59:33.937Z,91.56
2019-01-24T05:00:33.910Z,92.08
2019-01-24T05:01:33.937Z,91.77
2019-01-24T05:02:33.975Z,91.97
2019-01-24T05:03:33.909Z,91.91
2019-01-24T05:04:33.867Z,92.02
2019-01-24T05:05:33.864Z,91.81
2019-01-24T05:06:33.868Z,92.76
2019-01-24T05:07:33.838Z,91.71
2019-01-24T05:08:33.829Z,90.72
2019-01-24T05:09:33.865Z,90.34
2019-01-24T05:10:33.830Z,90.66
2019-01-24T05:11:33.818Z,90.02
2019-01-24T05:12:33.791Z,90.76
2019-01-24T05:13:33.816Z,90.34
2019-01-24T05:14:33.782Z,90.23
2019-01-24T05:15:33.781Z,90.23
2019-01-24T05:16:33.776Z,91.39
2019-01-24T05:17:33.742Z,90.51
2019-01-24T05:18:33.748Z,90.55
2019-01-24T05:19:33.729Z,89.60
2019-01-24T05:20:33.715Z,89.71
2019-01-24T05:21:33.760Z,89.81
2019-01-24T05:22:33.743Z,89.60
2019-01-24T05:23:33.708Z,89.92
2019-01-24T05:24:33.669Z,89.29
2019-01-24T05:25:33.699Z,89.50
2019-01-24T05:26:33.664Z,90.02
2019-01-24T05:27:33.663Z,89.71
2019-01-24T05:28:33.624Z,90.09
2019-01-24T05:29:33.625Z,89.50
2019-01-24T05:30:33.678Z,89.39
2019-01-24T05:31:33.656Z,90.12
2019-01-24T05:32:33.588Z,89.81
2019-01-24T05:33:33.577Z,90.02
2019-01-24T05:34:33.583Z,89.60
2019-01-24T05:35:35.014Z,89.50
2019-01-24T05:36:33.577Z,90.12
2019-01-24T05:37:33.576Z,89.71
2019-01-24T05:38:33.560Z,90.12
2019-01-24T05:39:33.508Z,89.71
2019-01-24T05:40:33.537Z,90.02
2019-01-24T05:41:33.533Z,90.02
2019-01-24T05:42:33.498Z,89.50
2019-01-24T05:43:33.467Z,89.71
2019-01-24T05:44:33.454Z,90.02
2019-01-24T05:45:33.452Z,89.92
2019-01-24T05:46:33.450Z,90.12
2019-01-24T05:47:33.484Z,90.44
2019-01-24T05:48:33.416Z,90.76
2019-01-24T05:49:33.414Z,90.66
2019-01-24T05:50:33.438Z,90.97
2019-01-24T05:51:33.382Z,90.55
2019-01-24T05:52:33.409Z,90.02
2019-01-24T05:53:33.374Z,90.23
2019-01-24T05:54:33.385Z,90.76
2019-01-24T05:55:33.342Z,90.66
2019-01-24T05:56:33.337Z,90.66
2019-01-24T05:57:33.345Z,90.97
2019-01-24T05:58:33.331Z,91.39
2019-01-24T05:59:33.329Z,91.18
2019-01-24T06:00:33.292Z,90.76
2019-01-24T06:01:33.358Z,91.28
2019-01-24T06:02:33.292Z,91.07
2019-01-24T06:03:33.261Z,91.39
2019-01-24T06:04:33.256Z,90.76
2019-01-24T06:05:33.252Z,91.49
2019-01-24T06:06:33.235Z,91.28
2019-01-24T06:07:33.250Z,91.07
2019-01-24T06:08:33.214Z,90.23
2019-01-24T06:09:33.237Z,90.86
2019-01-24T06:10:33.204Z,90.91
2019-01-24T06:11:33.179Z,91.49
2019-01-24T06:12:33.228Z,91.03
2019-01-24T06:13:33.157Z,89.98
2019-01-24T06:14:33.143Z,89.81
2019-01-24T06:15:33.133Z,89.87
2019-01-24T06:16:33.125Z,90.02
2019-01-24T06:17:33.165Z,90.61
2019-01-24T06:18:33.110Z,90.66
2019-01-24T06:19:33.131Z,90.66
2019-01-24T06:20:33.085Z,91.39
2019-01-24T06:21:33.070Z,90.80
2019-01-24T06:22:33.095Z,90.48
2019-01-24T06:23:33.052Z,91.33
2019-01-24T06:24:33.098Z,90.97
2019-01-24T06:25:33.046Z,90.97
2019-01-24T06:26:33.070Z,91.39
2019-01-24T06:27:33.041Z,91.33
2019-01-24T06:28:33.003Z,91.39
2019-01-24T06:29:32.988Z,91.39
2019-01-24T06:30:33.001Z,91.85
2019-01-24T06:31:32.969Z,91.85
2019-01-24T06:32:33.001Z,92.06
2019-01-24T06:33:32.959Z,92.65
2019-01-24T06:34:32.973Z,92.38
2019-01-24T06:35:32.950Z,92.27
2019-01-24T06:36:32.916Z,91.96
2019-01-24T06:37:32.928Z,91.39
2019-01-24T06:38:32.897Z,91.74
2019-01-24T06:39:32.900Z,91.53
2019-01-24T06:40:32.893Z,91.18
2019-01-24T06:41:32.893Z,91.91
2019-01-24T06:42:32.892Z,91.71
2019-01-24T06:43:32.843Z,92.06
2019-01-24T06:44:32.850Z,92.06
2019-01-24T06:45:32.844Z,91.85
2019-01-24T06:46:32.816Z,92.16
2019-01-24T06:47:32.842Z,91.85
2019-01-24T06:48:32.842Z,91.74
2019-01-24T06:49:32.782Z,91.22
2019-01-24T06:50:32.772Z,91.53
2019-01-24T06:51:32.766Z,91.74
2019-01-24T06:52:32.768Z,92.90
2019-01-24T06:53:32.801Z,92.27
2019-01-24T06:54:32.754Z,92.27
2019-01-24T06:55:32.727Z,92.27
2019-01-24T06:56:32.732Z,92.38
2019-01-24T06:57:32.697Z,92.38
2019-01-24T06:58:32.731Z,92.48
2019-01-24T06:59:32.726Z,92.58
2019-01-24T07:00:32.682Z,92.69
2019-01-24T07:01:32.679Z,92.80
2019-01-24T07:02:32.649Z,92.27
2019-01-24T07:03:32.716Z,92.38
2019-01-24T07:04:32.649Z,92.80
2019-01-24T07:05:32.646Z,92.48
2019-01-24T07:06:32.606Z,92.90
2019-01-24T07:07:32.629Z,92.80
2019-01-24T07:08:32.628Z,92.90
2019-01-24T07:09:32.574Z,92.58
2019-01-24T07:10:32.638Z,92.90
2019-01-24T07:11:32.576Z,92.58
2019-01-24T07:12:32.552Z,92.90
2019-01-24T07:13:32.585Z,92.58
2019-01-24T07:14:32.525Z,92.06
2019-01-24T07:15:32.512Z,92.58
2019-01-24T07:16:32.503Z,92.90
2019-01-24T07:17:32.494Z,92.69
2019-01-24T07:18:32.942Z,92.38
2019-01-24T07:19:32.503Z,93.01
2019-01-24T07:20:32.461Z,92.06
2019-01-24T07:21:32.452Z,92.38
2019-01-24T07:22:32.452Z,92.69
2019-01-24T07:23:32.448Z,91.91
2019-01-24T07:24:32.434Z,92.06
2019-01-24T07:25:32.409Z,92.90
2019-01-24T07:26:32.401Z,92.80
2019-01-24T07:27:32.389Z,91.74
2019-01-24T07:28:32.390Z,91.49
2019-01-24T07:29:32.418Z,91.39
2019-01-24T07:30:32.357Z,90.86
2019-01-24T07:31:32.389Z,90.34
2019-01-24T07:32:32.360Z,90.44
2019-01-24T07:33:32.361Z,90.12
2019-01-24T07:34:32.320Z,90.23
2019-01-24T07:35:32.304Z,90.76
2019-01-24T07:36:32.299Z,91.28
2019-01-24T07:37:32.289Z,91.28
2019-01-24T07:38:32.309Z,91.49
2019-01-24T07:39:32.268Z,90.66
2019-01-24T07:40:32.257Z,90.86
2019-01-24T07:41:32.297Z,90.76
2019-01-24T07:42:32.233Z,90.55
2019-01-24T07:43:32.268Z,90.92
2019-01-24T07:44:32.216Z,90.51
2019-01-24T07:45:32.235Z,91.28
2019-01-24T07:46:32.239Z,90.86
2019-01-24T07:47:32.220Z,90.76
2019-01-24T07:48:32.249Z,90.23
2019-01-24T07:49:32.173Z,91.03
2019-01-24T07:50:32.205Z,90.09
2019-01-24T07:51:32.141Z,89.56
2019-01-24T07:52:32.144Z,90.44
2019-01-24T07:53:32.179Z,90.23
2019-01-24T07:54:32.161Z,89.67
2019-01-24T07:55:32.099Z,89.60
2019-01-24T07:56:32.106Z,89.50
2019-01-24T07:57:33.619Z,89.60
2019-01-24T07:58:32.084Z,89.67
2019-01-24T07:59:32.373Z,89.67
2019-01-24T08:00:32.098Z,90.30
2019-01-24T08:01:32.036Z,90.30
2019-01-24T08:02:32.030Z,90.76
2019-01-24T08:03:32.015Z,91.03
2019-01-24T08:04:32.112Z,90.12
2019-01-24T08:05:31.997Z,90.02
2019-01-24T08:06:31.988Z,89.67
2019-01-24T08:07:32.007Z,90.23
2019-01-24T08:08:31.964Z,89.67
2019-01-24T08:09:31.989Z,90.34
2019-01-24T08:10:31.958Z,89.98
2019-01-24T08:11:31.933Z,90.02
2019-01-24T08:12:31.924Z,89.87
2019-01-24T08:13:31.950Z,89.56
2019-01-24T08:14:31.917Z,90.30
2019-01-24T08:15:31.909Z,90.72
2019-01-24T08:16:31.879Z,89.56
2019-01-24T08:17:31.905Z,89.98
2019-01-24T08:18:31.868Z,89.67
2019-01-24T08:19:31.890Z,89.25
2019-01-24T08:20:31.869Z,89.56
2019-01-24T08:21:31.879Z,89.35
2019-01-24T08:22:31.870Z,89.14
2019-01-24T08:23:31.847Z,89.25
2019-01-24T08:24:31.821Z,89.14
2019-01-24T08:25:31.792Z,89.25
2019-01-24T08:26:31.826Z,89.14
2019-01-24T08:27:31.772Z,89.35
2019-01-24T08:28:31.786Z,88.93
2019-01-24T08:29:31.783Z,89.35
2019-01-24T08:30:31.796Z,89.35
2019-01-24T08:31:31.795Z,89.56
2019-01-24T08:32:31.717Z,89.04
2019-01-24T08:33:31.761Z,89.94
2019-01-24T08:34:31.711Z,89.21
2019-01-24T08:35:31.736Z,89.31
2019-01-24T08:36:31.677Z,88.68
2019-01-24T08:37:31.666Z,88.82
2019-01-24T08:38:31.654Z,88.37
2019-01-24T08:39:31.703Z,88.30
2019-01-24T08:40:31.678Z,88.20
2019-01-24T08:41:31.680Z,88.72
2019-01-24T08:42:31.611Z,88.89
2019-01-24T08:43:31.619Z,88.89
2019-01-24T08:44:31.614Z,88.89
2019-01-24T08:45:31.581Z,88.26
2019-01-24T08:46:31.579Z,88.05
2019-01-24T08:47:31.567Z,87.74
2019-01-24T08:48:31.580Z,88.37
2019-01-24T08:49:31.561Z,88.37
2019-01-24T08:50:31.546Z,88.79
2019-01-24T08:51:31.632Z,88.37
2019-01-24T08:52:31.511Z,88.37
2019-01-24T08:53:31.500Z,87.84
2019-01-24T08:54:31.563Z,88.05
2019-01-24T08:55:31.494Z,87.74
2019-01-24T08:56:31.473Z,87.74
2019-01-24T08:57:31.461Z,87.42
2019-01-24T08:58:31.458Z,87.21
2019-01-24T08:59:31.795Z,87.74
2019-01-24T09:00:31.689Z,87.21
2019-01-24T09:01:31.426Z,87.63
2019-01-24T09:02:31.414Z,87.95
2019-01-24T09:03:31.404Z,87.42
2019-01-24T09:04:31.426Z,87.84
2019-01-24T09:05:31.442Z,87.11
2019-01-24T09:06:31.377Z,87.32
2019-01-24T09:07:31.363Z,87.52
2019-01-24T09:08:31.348Z,87.74
2019-01-24T09:09:31.401Z,87.74
2019-01-24T09:10:31.426Z,87.59
2019-01-24T09:11:31.346Z,87.59
2019-01-24T09:12:31.304Z,86.54
2019-01-24T09:13:31.305Z,86.65
2019-01-24T09:14:31.360Z,86.54
2019-01-24T09:15:31.306Z,85.60
2019-01-24T09:16:31.301Z,85.81
2019-01-24T09:17:31.259Z,86.33
2019-01-24T09:18:31.258Z,86.54
2019-01-24T09:19:31.252Z,86.44
2019-01-24T09:20:31.248Z,86.29
2019-01-24T09:21:31.243Z,85.66
2019-01-24T09:22:31.216Z,85.46
2019-01-24T09:23:31.189Z,84.72
2019-01-24T09:24:31.181Z,84.76
2019-01-24T09:25:31.212Z,85.25
2019-01-24T09:26:31.654Z,85.18
2019-01-24T09:27:31.154Z,85.18
2019-01-24T09:28:31.216Z,85.71
2019-01-24T09:29:31.138Z,85.49
2019-01-24T09:30:31.134Z,85.74
2019-01-24T09:31:31.271Z,86.44
2019-01-24T09:32:31.106Z,85.49
2019-01-24T09:33:31.128Z,85.42
2019-01-24T09:34:31.075Z,85.49
2019-01-24T09:35:31.110Z,85.60
2019-01-24T09:36:31.115Z,86.44
2019-01-24T09:37:31.050Z,86.40
2019-01-24T09:38:31.040Z,85.18
2019-01-24T09:39:31.052Z,85.60
2019-01-24T09:40:31.034Z,85.39
2019-01-24T09:41:31.040Z,85.03
2019-01-24T09:42:31.009Z,85.35
2019-01-24T09:43:31.029Z,85.35
2019-01-24T09:44:30.974Z,85.66
2019-01-24T09:45:31.007Z,85.14
2019-01-24T09:46:30.967Z,85.14
2019-01-24T09:47:30.944Z,84.83
2019-01-24T09:48:30.938Z,84.41
2019-01-24T09:49:30.931Z,84.51
2019-01-24T09:50:30.935Z,84.51
2019-01-24T09:51:30.956Z,84.20
2019-01-24T09:52:30.912Z,84.68
2019-01-24T09:53:30.891Z,84.37
2019-01-24T09:54:30.902Z,83.57
2019-01-24T09:55:30.870Z,83.88
2019-01-24T09:56:30.852Z,83.78
2019-01-24T09:57:30.846Z,83.32
2019-01-24T09:58:30.841Z,83.11
2019-01-24T09:59:30.822Z,83.88
2019-01-24T10:00:30.807Z,83.25
2019-01-24T10:01:30.865Z,83.25
2019-01-24T10:02:30.785Z,83.57
2019-01-24T10:03:30.785Z,83.04
2019-01-24T10:04:30.770Z,84.62
2019-01-24T10:05:30.766Z,83.57
2019-01-24T10:06:36.229Z,83.15
2019-01-24T10:07:31.757Z,82.42
2019-01-24T10:08:30.723Z,83.47
2019-01-24T10:09:30.737Z,83.04
2019-01-24T10:10:30.719Z,83.88
2019-01-24T10:11:30.867Z,83.22
2019-01-24T10:12:30.694Z,83.22
2019-01-24T10:13:30.676Z,82.97
2019-01-24T10:14:30.660Z,82.17
2019-01-24T10:15:30.657Z,81.54
2019-01-24T10:16:30.805Z,81.85
2019-01-24T10:17:30.638Z,82.90
2019-01-24T10:18:30.622Z,82.27
2019-01-24T10:19:30.652Z,82.76
2019-01-24T10:20:30.601Z,82.45
2019-01-24T10:21:30.618Z,82.13
2019-01-24T10:22:30.592Z,82.65
2019-01-24T10:23:30.626Z,82.13
2019-01-24T10:24:30.557Z,81.82
2019-01-24T10:25:30.561Z,82.79
2019-01-24T10:26:30.556Z,83.11
2019-01-24T10:27:30.527Z,83.01
2019-01-24T10:28:30.515Z,83.22
2019-01-24T10:29:30.536Z,83.64
2019-01-24T10:30:30.528Z,82.79
2019-01-24T10:31:30.501Z,83.84
2019-01-24T10:32:30.494Z,84.79
2019-01-24T10:33:30.486Z,83.39
2019-01-24T10:34:30.460Z,84.16
2019-01-24T10:35:30.453Z,83.49
2019-01-24T10:36:30.502Z,83.01
2019-01-24T10:37:30.444Z,83.53
2019-01-24T10:38:30.419Z,83.53
2019-01-24T10:39:30.401Z,82.79
2019-01-24T10:40:30.400Z,82.38
2019-01-24T10:41:30.442Z,83.42
2019-01-24T10:42:30.402Z,83.42
2019-01-24T10:43:30.366Z,83.53
2019-01-24T10:44:30.363Z,83.22
2019-01-24T10:45:30.361Z,83.01
2019-01-24T10:46:30.368Z,83.32
2019-01-24T10:47:30.320Z,83.39
2019-01-24T10:48:30.324Z,83.18
2019-01-24T10:49:30.323Z,81.82
2019-01-24T10:50:30.286Z,81.40
2019-01-24T10:51:30.313Z,81.92
2019-01-24T10:52:30.280Z,81.71
2019-01-24T10:53:30.258Z,81.88
2019-01-24T10:54:30.251Z,81.36
2019-01-24T10:55:30.236Z,81.46
2019-01-24T10:56:30.275Z,81.78
2019-01-24T10:57:30.244Z,81.99
2019-01-24T10:58:30.212Z,82.30
2019-01-24T10:59:30.231Z,82.72
2019-01-24T11:00:30.184Z,81.88
2019-01-24T11:01:30.201Z,81.88
2019-01-24T11:02:30.218Z,82.72
2019-01-24T11:03:30.158Z,82.23
2019-01-24T11:04:30.142Z,82.72
2019-01-24T11:05:30.133Z,82.62
2019-01-24T11:06:30.156Z,82.86
2019-01-24T11:07:30.182Z,82.20
2019-01-24T11:08:30.103Z,81.78
2019-01-24T11:09:30.094Z,81.67
2019-01-24T11:10:30.130Z,82.34
2019-01-24T11:11:30.093Z,83.03
2019-01-24T11:12:30.080Z,82.72
2019-01-24T11:13:31.544Z,82.40
2019-01-24T11:14:30.091Z,82.09
2019-01-24T11:15:30.061Z,81.36
2019-01-24T11:16:30.021Z,81.67
2019-01-24T11:17:30.033Z,81.46
2019-01-24T11:18:30.007Z,80.77
2019-01-24T11:19:30.063Z,81.29
2019-01-24T11:20:29.982Z,81.46
2019-01-24T11:21:29.972Z,81.71
2019-01-24T11:22:30.010Z,81.82
2019-01-24T11:23:29.962Z,82.76
2019-01-24T11:24:29.936Z,81.71
2019-01-24T11:25:29.951Z,81.40
2019-01-24T11:26:29.920Z,81.43
2019-01-24T11:27:29.920Z,82.45
2019-01-24T11:28:29.972Z,83.42
2019-01-24T11:29:29.890Z,82.23
2019-01-24T11:30:29.916Z,82.76
2019-01-24T11:31:29.864Z,82.86
2019-01-24T11:32:29.877Z,81.40
2019-01-24T11:33:29.851Z,80.77
2019-01-24T11:34:29.836Z,81.40
2019-01-24T11:35:29.824Z,82.03
2019-01-24T11:36:29.822Z,82.03
2019-01-24T11:37:29.831Z,82.03
2019-01-24T11:38:29.808Z,81.19
2019-01-24T11:39:29.798Z,81.92
2019-01-24T11:40:29.868Z,81.60
2019-01-24T11:41:29.791Z,82.76
2019-01-24T11:42:29.783Z,82.13
2019-01-24T11:43:29.762Z,82.45
2019-01-24T11:44:29.734Z,82.76
2019-01-24T11:45:29.885Z,82.45
2019-01-24T11:46:29.716Z,82.93
2019-01-24T11:47:29.728Z,82.13
2019-01-24T11:48:29.725Z,82.97
2019-01-24T11:49:29.683Z,82.23
2019-01-24T11:50:29.678Z,81.50
2019-01-24T11:51:29.691Z,81.71
2019-01-24T11:52:29.680Z,82.76
2019-01-24T11:53:29.641Z,82.03
2019-01-24T11:54:29.640Z,82.09
2019-01-24T11:55:29.668Z,81.46
2019-01-24T11:56:29.608Z,81.36
2019-01-24T11:57:29.611Z,81.88
2019-01-24T11:58:29.592Z,82.09
2019-01-24T11:59:29.612Z,81.46
2019-01-24T12:00:29.633Z,80.63
2019-01-24T12:01:29.652Z,80.77
2019-01-24T12:02:29.570Z,80.66
2019-01-24T12:03:29.557Z,81.26
2019-01-24T12:04:29.525Z,80.10
2019-01-24T12:05:29.514Z,80.24
2019-01-24T12:06:29.551Z,80.56
2019-01-24T12:07:29.580Z,81.40
2019-01-24T12:08:29.530Z,81.50
2019-01-24T12:09:29.478Z,80.87
2019-01-24T12:10:29.470Z,80.24
2019-01-24T12:11:30.382Z,80.87
2019-01-24T12:12:29.460Z,80.87
2019-01-24T12:13:29.432Z,81.19
2019-01-24T12:14:29.425Z,80.46
2019-01-24T12:15:29.485Z,80.66
2019-01-24T12:16:29.401Z,80.24
2019-01-24T12:17:29.438Z,80.07
2019-01-24T12:18:29.410Z,80.18
2019-01-24T12:19:29.377Z,80.38
2019-01-24T12:20:29.388Z,80.38
2019-01-24T12:21:29.404Z,80.38
2019-01-24T12:22:29.361Z,80.91
2019-01-24T12:23:29.352Z,80.49
2019-01-24T12:24:29.350Z,80.28
2019-01-24T12:25:29.323Z,79.61
2019-01-24T12:26:29.342Z,78.29
2019-01-24T12:27:29.343Z,79.65
2019-01-24T12:28:29.305Z,80.49
2019-01-24T12:29:29.267Z,79.75
2019-01-24T12:30:29.892Z,80.18
2019-01-24T12:31:29.246Z,79.72
2019-01-24T12:32:29.293Z,79.65
2019-01-24T12:33:29.353Z,79.97
2019-01-24T12:34:29.228Z,80.28
2019-01-24T12:35:29.205Z,79.20
2019-01-24T12:36:29.267Z,77.62
2019-01-24T12:37:29.281Z,77.94
2019-01-24T12:38:29.185Z,78.78
2019-01-24T12:39:29.189Z,77.31
2019-01-24T12:40:29.157Z,79.05
2019-01-24T12:41:29.156Z,77.91
2019-01-24T12:42:29.147Z,76.23
2019-01-24T12:43:29.125Z,76.96
2019-01-24T12:44:29.133Z,76.65
2019-01-24T12:45:29.102Z,76.82
2019-01-24T12:46:29.115Z,76.44
2019-01-24T12:47:29.147Z,75.39
2019-01-24T12:48:29.074Z,75.08
2019-01-24T12:49:29.077Z,74.87
2019-01-24T12:50:29.104Z,75.49
2019-01-24T12:51:29.122Z,74.97
2019-01-24T12:52:29.135Z,75.49